Time;durP1;ratioP1;P1;durP2;ratioP2;P2;SDS_P1;SDS_P2;PMS_P1;PMS_P2;Temp;Humidity;BMP_temperature;BMP_pressure;BME280_temperature;BME280_humidity;BME280_pressure;Samples;Min_cycle;Max_cycle;Signal;HPM_P1;HPM_P2
2022/09/30 00:00:29;;;;;;;11.47;7.27;;;;;;;15.75;100.00;101031.06;2088665;28;20211;-61
2022/09/30 00:01:31;;;;;;;9.63;7.10;;;;;;;15.66;100.00;101012.22;2092646;28;20196;-61
2022/09/30 00:02:32;;;;;;;11.70;6.50;;;;;;;15.76;100.00;101029.81;2096915;28;20264;-61
2022/09/30 00:03:32;;;;;;;11.57;6.93;;;;;;;15.73;100.00;101019.56;2096386;28;21013;-62
2022/09/30 00:04:33;;;;;;;7.73;6.00;;;;;;;15.78;100.00;101024.56;2096281;28;20189;-61
2022/09/30 00:05:33;;;;;;;9.80;6.60;;;;;;;15.79;100.00;101029.66;2097172;28;20218;-61
2022/09/30 00:06:34;;;;;;;11.87;5.77;;;;;;;15.79;100.00;101024.06;2096917;28;20241;-61
2022/09/30 00:07:34;;;;;;;12.67;5.67;;;;;;;15.78;100.00;101028.13;2103495;28;20197;-61
2022/09/30 00:08:37;;;;;;;11.97;5.70;;;;;;;15.79;100.00;101031.69;2104432;28;20202;-61
2022/09/30 00:09:37;;;;;;;10.90;5.33;;;;;;;15.69;100.00;101010.53;2104251;28;20199;-61
2022/09/30 00:10:38;;;;;;;14.50;5.87;;;;;;;15.80;100.00;101030.47;2101096;28;20456;-61
2022/09/30 00:11:40;;;;;;;6.97;5.43;;;;;;;15.80;100.00;101031.25;2093534;28;20203;-61
2022/09/30 00:12:41;;;;;;;9.53;6.80;;;;;;;15.71;100.00;101011.63;2090672;28;20187;-61
2022/09/30 00:13:42;;;;;;;11.63;6.70;;;;;;;15.78;100.00;101027.34;2096247;28;20511;-61
2022/09/30 00:14:43;;;;;;;12.53;8.43;;;;;;;15.80;100.00;101025.66;2096802;28;20179;-61
2022/09/30 00:15:45;;;;;;;9.67;8.17;;;;;;;15.48;100.00;100992.56;2088024;28;20503;-61
2022/09/30 00:16:46;;;;;;;10.40;6.87;;;;;;;15.76;100.00;101030.59;2087969;28;20190;-61
2022/09/30 00:17:47;;;;;;;10.20;6.07;;;;;;;15.74;100.00;101033.09;2094129;28;21040;-61
2022/09/30 00:18:48;;;;;;;13.00;8.13;;;;;;;15.73;100.00;101033.53;2091582;28;20206;-61
2022/09/30 00:19:49;;;;;;;14.83;10.20;;;;;;;15.69;100.00;101033.69;2088042;28;20199;-61
2022/09/30 00:20:49;;;;;;;16.63;10.77;;;;;;;15.70;100.00;101026.06;2088427;28;20453;-61
2022/09/30 00:21:50;;;;;;;13.83;10.20;;;;;;;15.66;100.00;101028.19;2089750;28;20176;-61
2022/09/30 00:22:51;;;;;;;11.20;8.07;;;;;;;15.65;100.00;101029.44;2096167;28;20179;-61
2022/09/30 00:23:51;;;;;;;11.83;7.70;;;;;;;15.65;100.00;101027.44;2096849;28;20218;-61
2022/09/30 00:24:52;;;;;;;11.43;7.60;;;;;;;15.61;100.00;101026.00;2096451;28;20256;-61
2022/09/30 00:26:00;;;;;;;9.73;7.00;;;;;;;15.68;100.00;101042.50;2096362;28;20198;-61
2022/09/30 00:27:00;;;;;;;13.17;6.63;;;;;;;15.67;100.00;101035.38;2088693;28;20188;-61
2022/09/30 00:28:01;;;;;;;9.00;6.83;;;;;;;15.68;100.00;101039.72;2088074;28;20931;-61
2022/09/30 00:29:02;;;;;;;9.87;6.77;;;;;;;15.66;100.00;101039.38;2091470;28;20187;-61
2022/09/30 00:30:03;;;;;;;9.07;5.80;;;;;;;15.67;100.00;101040.97;2093253;28;20708;-61
2022/09/30 00:31:08;;;;;;;9.03;6.00;;;;;;;15.67;100.00;101032.56;2087941;28;20417;-62
2022/09/30 00:32:09;;;;;;;12.20;6.40;;;;;;;15.68;100.00;101028.53;2088253;28;20429;-61
2022/09/30 00:33:09;;;;;;;15.63;6.23;;;;;;;15.66;100.00;101029.00;2088003;28;20415;-61
2022/09/30 00:34:10;;;;;;;12.07;8.83;;;;;;;15.66;100.00;101020.63;2088671;28;20262;-61
2022/09/30 00:35:11;;;;;;;15.93;9.47;;;;;;;15.63;100.00;101023.53;2095224;28;20569;-61
2022/09/30 00:36:11;;;;;;;16.50;8.90;;;;;;;15.59;100.00;101015.31;2102758;28;20444;-61
2022/09/30 00:37:14;;;;;;;8.60;7.60;;;;;;;15.60;100.00;101021.66;2093764;28;20699;-61
2022/09/30 00:38:14;;;;;;;8.57;6.60;;;;;;;15.60;100.00;101013.28;2088191;28;20234;-61
2022/09/30 00:39:23;;;;;;;9.93;6.07;;;;;;;15.58;100.00;101008.13;2090836;28;20522;-61
2022/09/30 00:40:24;;;;;;;9.73;7.20;;;;;;;15.58;100.00;101004.59;2093529;28;20200;-61
2022/09/30 00:41:25;;;;;;;10.07;6.40;;;;;;;15.58;100.00;101002.53;2089661;28;20506;-61
2022/09/30 00:42:28;;;;;;;9.03;6.47;;;;;;;15.58;100.00;101012.97;2097112;28;20190;-61
2022/09/30 00:43:50;;;;;;;13.60;6.20;;;;;;;15.56;100.00;101007.03;2105625;28;20179;-61
2022/09/30 00:45:03;;;;;;;10.83;5.97;;;;;;;15.53;100.00;101008.72;2091296;28;20506;-61
2022/09/30 00:46:05;;;;;;;11.10;6.13;;;;;;;15.48;100.00;101009.31;2104960;28;20393;-61
2022/09/30 00:47:25;;;;;;;10.47;6.13;;;;;;;15.47;100.00;101010.56;2101446;28;20447;-61
2022/09/30 00:48:33;;;;;;;10.00;5.70;;;;;;;15.47;100.00;101007.00;2091171;28;20455;-61
2022/09/30 00:49:33;;;;;;;10.53;6.10;;;;;;;15.46;100.00;101008.22;2096178;28;20414;-61
2022/09/30 00:50:36;;;;;;;12.17;6.20;;;;;;;15.45;100.00;101013.03;2095677;28;20455;-61
2022/09/30 00:51:44;;;;;;;14.80;5.93;;;;;;;15.13;100.00;100965.97;2095644;28;20176;-61
2022/09/30 00:52:49;;;;;;;13.57;8.63;;;;;;;15.30;100.00;100998.00;2096456;28;20426;-61
2022/09/30 00:54:06;;;;;;;12.00;9.23;;;;;;;15.40;100.00;101024.81;2096964;28;20844;-61
2022/09/30 00:55:14;;;;;;;12.07;6.77;;;;;;;15.06;100.00;100963.41;2087818;28;20402;-61
2022/09/30 00:56:28;;;;;;;17.60;6.77;;;;;;;15.11;100.00;100973.22;2089429;28;20411;-61
2022/09/30 00:57:29;;;;;;;14.13;5.93;;;;;;;15.40;100.00;101015.63;2094228;28;20463;-61
2022/09/30 00:58:34;;;;;;;11.70;8.70;;;;;;;15.39;100.00;101014.06;2087847;28;20423;-61
2022/09/30 00:59:42;;;;;;;14.77;6.47;;;;;;;15.37;100.00;101008.19;2087989;28;20410;-61
2022/09/30 01:00:43;;;;;;;8.57;6.00;;;;;;;15.11;100.00;100967.66;2097290;28;20422;-61
2022/09/30 01:01:43;;;;;;;10.27;7.67;;;;;;;15.37;100.00;100999.81;2096482;28;20441;-61
2022/09/30 01:02:46;;;;;;;10.63;6.47;;;;;;;15.37;100.00;101011.72;2096661;28;20260;-61
2022/09/30 01:03:48;;;;;;;10.17;6.20;;;;;;;15.36;100.00;101004.59;2090055;28;20194;-62
2022/09/30 01:04:49;;;;;;;11.87;8.70;;;;;;;15.37;100.00;101002.59;2093376;28;20496;-61
2022/09/30 01:05:51;;;;;;;12.63;6.80;;;;;;;15.27;100.00;100990.53;2100213;28;20448;-61
2022/09/30 01:06:52;;;;;;;13.90;8.53;;;;;;;15.35;100.00;101017.00;2104363;28;20185;-61
2022/09/30 01:07:56;;;;;;;15.00;6.63;;;;;;;15.36;100.00;101012.97;2100298;28;20455;-61
2022/09/30 01:08:57;;;;;;;10.03;6.20;;;;;;;15.38;100.00;101013.28;2089395;28;20423;-61
2022/09/30 01:09:58;;;;;;;14.43;6.17;;;;;;;15.39;100.00;101012.06;2095824;28;20450;-61
2022/09/30 01:10:58;;;;;;;17.70;10.43;;;;;;;15.39;100.00;101009.28;2092042;28;20186;-61
2022/09/30 01:12:13;;;;;;;15.90;11.23;;;;;;;15.33;100.00;100993.56;2088551;28;20717;-61
2022/09/30 01:13:16;;;;;;;13.57;9.50;;;;;;;15.28;100.00;101000.50;2096211;28;20187;-61
2022/09/30 01:14:21;;;;;;;14.53;8.53;;;;;;;15.33;100.00;101004.72;2088751;28;20615;-61
2022/09/30 01:15:30;;;;;;;13.17;8.33;;;;;;;15.34;100.00;101009.88;2094581;28;20935;-61
2022/09/30 01:16:59;;;;;;;11.63;7.40;;;;;;;15.38;100.00;101007.69;2102880;28;20449;-61
2022/09/30 01:18:15;;;;;;;11.20;7.13;;;;;;;15.37;100.00;101005.38;2087824;28;20431;-61
2022/09/30 01:19:40;;;;;;;15.03;8.53;;;;;;;15.33;100.00;100999.16;2087141;28;20425;-61
2022/09/30 01:20:59;;;;;;;12.13;7.70;;;;;;;15.27;100.00;101012.88;2088853;28;20818;-61
2022/09/30 01:22:24;;;;;;;9.80;6.40;;;;;;;15.26;100.00;101016.91;2094254;28;20452;-61
2022/09/30 01:23:41;;;;;;;15.83;6.17;;;;;;;15.27;100.00;101014.91;2097433;28;20429;-61
2022/09/30 01:25:03;;;;;;;21.97;8.70;;;;;;;15.26;100.00;101014.13;2089928;28;20954;-61
2022/09/30 01:26:48;;;;;;;45.90;10.37;;;;;;;15.21;100.00;101025.88;2089212;28;20409;-61
2022/09/30 01:28:20;;;;;;;25.83;9.47;;;;;;;15.20;100.00;101029.09;2091502;28;20450;-61
2022/09/30 01:29:42;;;;;;;22.00;8.50;;;;;;;15.18;100.00;101028.78;2090093;28;20441;-61
2022/09/30 01:30:48;;;;;;;15.27;6.60;;;;;;;15.16;100.00;101034.06;2089905;28;20999;-61
2022/09/30 01:32:00;;;;;;;16.07;8.37;;;;;;;14.44;100.00;100924.66;2089205;28;20501;-61
2022/09/30 01:33:19;;;;;;;15.47;7.17;;;;;;;15.17;100.00;101039.16;2097000;28;20464;-61
2022/09/30 01:34:36;;;;;;;22.90;9.10;;;;;;;15.18;100.00;101032.38;2095032;28;20429;-61
2022/09/30 01:36:11;;;;;;;100.03;12.60;;;;;;;15.20;100.00;101032.69;2092234;28;20515;-61
2022/09/30 01:37:31;;;;;;;10.60;7.50;;;;;;;14.56;100.00;100932.94;2071198;28;20501;-61
2022/09/30 01:38:41;;;;;;;14.93;8.00;;;;;;;15.24;100.00;101046.50;2071641;28;20459;-61
2022/09/30 01:39:51;;;;;;;14.97;7.47;;;;;;;15.24;100.00;101044.50;2081574;28;20450;-61
2022/09/30 01:41:18;;;;;;;16.20;6.83;;;;;;;15.24;100.00;101044.50;2090345;28;20403;-61
2022/09/30 01:42:30;;;;;;;10.60;6.23;;;;;;;15.25;100.00;101042.47;2090696;28;20402;-61
2022/09/30 01:43:43;;;;;;;15.60;6.60;;;;;;;15.25;100.00;101039.69;2095606;28;20460;-61
2022/09/30 01:44:51;;;;;;;21.80;6.67;;;;;;;15.23;100.00;101037.38;2089205;28;20491;-62
2022/09/30 01:45:58;;;;;;;15.63;6.10;;;;;;;15.24;100.00;101040.94;2089453;28;20453;-61
2022/09/30 01:47:10;;;;;;;14.07;6.83;;;;;;;15.26;100.00;101035.69;2092546;28;20406;-61
2022/09/30 01:48:31;;;;;;;15.70;7.37;;;;;;;15.22;100.00;101038.59;2103421;28;20496;-61
2022/09/30 01:49:44;;;;;;;16.60;7.37;;;;;;;15.24;100.00;101035.34;2093135;28;20924;-62
2022/09/30 01:51:08;;;;;;;17.20;8.13;;;;;;;15.22;100.00;101046.19;2098589;28;20440;-61
2022/09/30 01:52:18;;;;;;;17.37;7.90;;;;;;;15.23;100.00;101039.38;2092487;28;20517;-61
2022/09/30 01:53:26;;;;;;;13.93;8.03;;;;;;;15.20;100.00;101043.84;2089433;28;21023;-61
2022/09/30 01:54:38;;;;;;;13.97;8.20;;;;;;;15.21;100.00;101041.84;2095738;28;20445;-62
2022/09/30 01:55:50;;;;;;;18.17;8.50;;;;;;;15.20;100.00;101046.66;2097207;28;20446;-62
2022/09/30 01:56:57;;;;;;;19.57;9.23;;;;;;;15.23;100.00;101045.75;2104816;28;20447;-61
2022/09/30 01:58:08;;;;;;;19.70;9.57;;;;;;;15.26;100.00;101042.03;2091253;28;20922;-62
2022/09/30 01:59:32;;;;;;;39.93;9.27;;;;;;;15.30;100.00;101039.09;2089190;28;20847;-61
2022/09/30 02:00:38;;;;;;;14.90;8.17;;;;;;;15.31;100.00;101044.25;2089421;28;20406;-61
2022/09/30 02:02:05;;;;;;;39.43;8.70;;;;;;;15.30;100.00;101034.31;2089695;28;20419;-61
2022/09/30 02:03:17;;;;;;;41.97;9.37;;;;;;;15.32;100.00;101031.84;2089035;28;20403;-61
2022/09/30 02:04:26;;;;;;;24.83;9.50;;;;;;;15.32;100.00;101034.63;2090827;28;20425;-61
2022/09/30 02:05:47;;;;;;;15.77;9.17;;;;;;;15.30;100.00;101034.31;2096721;28;20942;-61
2022/09/30 02:06:53;;;;;;;17.53;8.80;;;;;;;15.32;100.00;101036.66;2097101;28;20472;-61
2022/09/30 02:07:59;;;;;;;20.60;8.40;;;;;;;15.32;100.00;101031.06;2097154;28;20437;-61
2022/09/30 02:09:02;;;;;;;52.63;8.73;;;;;;;15.29;100.00;101038.34;2097369;28;20510;-61
2022/09/30 02:10:12;;;;;;;42.97;9.03;;;;;;;15.32;100.00;101026.25;2095203;28;20424;-61
2022/09/30 02:11:31;;;;;;;23.17;9.07;;;;;;;15.33;100.00;101022.28;2091634;28;20461;-61
2022/09/30 02:12:36;;;;;;;17.53;9.17;;;;;;;15.35;100.00;101019.78;2092216;28;20476;-61
2022/09/30 02:13:50;;;;;;;10.97;8.57;;;;;;;14.84;100.00;100928.34;2096821;28;20524;-62
2022/09/30 02:15:27;;;;;;;12.97;9.63;;;;;;;15.38;100.00;101010.50;2096478;28;20445;-61
2022/09/30 02:16:36;;;;;;;14.23;10.00;;;;;;;15.36;100.00;101015.00;2093140;28;20454;-62
2022/09/30 02:17:46;;;;;;;11.23;8.97;;;;;;;15.36;100.00;101024.16;2088239;28;20462;-61
2022/09/30 02:18:54;;;;;;;12.40;10.37;;;;;;;14.80;100.00;100927.72;2089249;28;20411;-61
2022/09/30 02:20:03;;;;;;;10.77;9.40;;;;;;;15.40;100.00;101029.59;2089809;28;20419;-61
2022/09/30 02:21:08;;;;;;;11.67;9.47;;;;;;;15.44;100.00;101035.84;2089628;28;20418;-61
2022/09/30 02:22:11;;;;;;;12.23;9.83;;;;;;;15.48;100.00;101042.06;2089125;28;20504;-61
2022/09/30 02:23:24;;;;;;;12.17;8.40;;;;;;;15.50;100.00;101048.75;2095908;28;20502;-61
2022/09/30 02:24:30;;;;;;;10.87;8.83;;;;;;;15.55;100.00;101056.56;2097592;28;20424;-61
2022/09/30 02:25:44;;;;;;;10.47;8.60;;;;;;;15.58;100.00;101052.84;2089246;28;20450;-61
2022/09/30 02:26:47;;;;;;;12.07;9.43;;;;;;;15.62;100.00;101058.31;2089521;28;20502;-61
2022/09/30 02:27:54;;;;;;;11.37;9.20;;;;;;;15.66;100.00;101056.94;2096836;28;20535;-61
2022/09/30 02:29:27;;;;;;;12.80;9.10;;;;;;;15.70;100.00;101040.81;2104904;28;20437;-61
2022/09/30 02:30:28;;;;;;;9.93;8.17;;;;;;;14.90;100.00;100918.19;2081235;28;20452;-61
2022/09/30 02:31:33;;;;;;;11.20;9.00;;;;;;;15.55;100.00;101011.84;2089073;28;20430;-61
2022/09/30 02:32:39;;;;;;;11.53;9.33;;;;;;;15.74;100.00;101046.25;2105895;28;20175;-61
2022/09/30 02:33:49;;;;;;;13.27;8.93;;;;;;;15.77;100.00;101051.72;2089583;28;20410;-61
2022/09/30 02:35:04;;;;;;;12.97;9.50;;;;;;;15.78;100.00;101061.66;2089518;28;20411;-61
2022/09/30 02:36:12;;;;;;;13.50;8.97;;;;;;;15.81;100.00;101066.34;2089111;28;20488;-61
2022/09/30 02:37:15;;;;;;;15.27;10.47;;;;;;;15.80;100.00;101061.19;2089064;28;20462;-61
2022/09/30 02:38:20;;;;;;;13.27;10.37;;;;;;;15.26;100.00;100991.00;2089414;28;20947;-61
2022/09/30 02:39:51;;;;;;;14.77;8.43;;;;;;;15.80;100.00;101075.97;2089143;28;20955;-61
2022/09/30 02:41:01;;;;;;;11.67;7.07;;;;;;;15.71;100.00;101083.50;2086865;28;20435;-61
2022/09/30 02:42:18;;;;;;;11.63;7.27;;;;;;;15.82;100.00;101087.44;2092691;28;20402;-61
2022/09/30 02:43:19;;;;;;;12.67;7.00;;;;;;;15.14;100.00;100978.69;2099906;28;21306;-61
2022/09/30 02:44:21;;;;;;;9.43;6.97;;;;;;;15.85;100.00;101083.75;2092244;28;20431;-61
2022/09/30 02:45:23;;;;;;;11.47;7.97;;;;;;;15.86;100.00;101074.13;2103681;28;20448;-61
2022/09/30 02:47:01;;;;;;;12.77;7.40;;;;;;;15.89;100.00;101076.00;2089743;28;20564;-61
2022/09/30 02:48:08;;;;;;;12.03;7.27;;;;;;;15.91;100.00;101065.16;2083527;28;21015;-61
2022/09/30 02:49:26;;;;;;;10.13;7.80;;;;;;;15.91;100.00;101073.53;2082943;28;20480;-61
2022/09/30 02:50:47;;;;;;;11.93;7.33;;;;;;;15.90;100.00;101076.78;2087916;28;20453;-61
2022/09/30 02:52:16;;;;;;;10.20;7.73;;;;;;;15.90;100.00;101069.19;2087643;28;20455;-61
2022/09/30 02:53:31;;;;;;;12.20;8.63;;;;;;;15.89;100.00;101069.63;2088444;28;20409;-61
2022/09/30 02:54:47;;;;;;;11.80;7.97;;;;;;;15.69;100.00;101042.06;2088510;28;20783;-61
2022/09/30 02:56:14;;;;;;;9.77;7.73;;;;;;;15.86;100.00;101070.53;2089854;28;20778;-61
2022/09/30 02:57:20;;;;;;;15.00;7.17;;;;;;;15.85;100.00;101069.00;2086858;28;21100;-61
2022/09/30 02:58:24;;;;;;;9.63;7.57;;;;;;;15.85;100.00;101069.00;2092271;28;20453;-61
2022/09/30 02:59:26;;;;;;;12.63;7.30;;;;;;;15.87;100.00;101069.31;2093805;28;20438;-61
2022/09/30 03:00:26;;;;;;;9.33;7.20;;;;;;;15.86;100.00;101076.91;2091175;28;20425;-61
2022/09/30 03:01:28;;;;;;;12.23;6.80;;;;;;;15.86;100.00;101079.72;2096353;28;20424;-61
2022/09/30 03:02:29;;;;;;;17.83;7.80;;;;;;;15.84;100.00;101084.19;2089598;28;20539;-61
2022/09/30 03:03:36;;;;;;;10.70;7.37;;;;;;;15.81;100.00;101076.72;2088712;28;20463;-61
2022/09/30 03:04:40;;;;;;;12.13;7.80;;;;;;;15.81;100.00;101082.31;2088763;28;20180;-61
2022/09/30 03:05:40;;;;;;;16.17;7.80;;;;;;;15.82;100.00;101083.88;2088774;28;20908;-61
2022/09/30 03:06:41;;;;;;;15.07;8.33;;;;;;;15.81;100.00;101079.53;2094455;28;20460;-61
2022/09/30 03:07:42;;;;;;;13.30;7.67;;;;;;;15.80;100.00;101080.75;2095566;28;20274;-61
2022/09/30 03:08:43;;;;;;;16.47;7.70;;;;;;;15.81;100.00;101080.31;2093304;28;20199;-61
2022/09/30 03:09:43;;;;;;;12.97;8.20;;;;;;;15.81;100.00;101083.09;2088482;28;20616;-61
2022/09/30 03:10:49;;;;;;;11.03;7.73;;;;;;;15.80;100.00;101081.56;2088955;28;20460;-61
2022/09/30 03:11:53;;;;;;;12.80;7.63;;;;;;;15.80;100.00;101072.38;2089136;28;20176;-61
2022/09/30 03:13:27;;;;;;;12.17;7.23;;;;;;;15.79;100.00;101076.41;2097064;28;20433;-61
2022/09/30 03:14:31;;;;;;;12.03;7.80;;;;;;;15.78;100.00;101078.41;2093615;28;20476;-61
2022/09/30 03:15:39;;;;;;;12.40;8.10;;;;;;;15.79;100.00;101074.38;2093669;28;20614;-61
2022/09/30 03:16:42;;;;;;;11.47;8.00;;;;;;;15.80;100.00;101080.75;2091006;28;20409;-61
2022/09/30 03:17:42;;;;;;;12.97;7.47;;;;;;;15.79;100.00;101077.16;2096801;28;20504;-61
2022/09/30 03:18:58;;;;;;;13.17;8.20;;;;;;;15.80;100.00;101083.56;2096646;28;20947;-61
2022/09/30 03:20:04;;;;;;;13.30;7.80;;;;;;;15.78;100.00;101078.41;2095483;28;20542;-61
2022/09/30 03:21:23;;;;;;;12.80;8.00;;;;;;;15.79;100.00;101076.41;2090673;28;20459;-61
2022/09/30 03:22:52;;;;;;;12.93;8.37;;;;;;;15.78;100.00;101074.84;2102701;28;20425;-61
2022/09/30 03:24:02;;;;;;;16.50;8.33;;;;;;;15.77;100.00;101078.91;2096124;28;20489;-61
2022/09/30 03:25:31;;;;;;;17.07;8.37;;;;;;;15.74;100.00;101074.22;2096092;28;20454;-61
2022/09/30 03:27:03;;;;;;;14.67;8.07;;;;;;;15.71;100.00;101070.31;2096854;28;20496;-61
2022/09/30 03:28:16;;;;;;;15.23;8.20;;;;;;;15.69;100.00;101070.00;2089993;28;20407;-61
2022/09/30 03:29:39;;;;;;;11.93;7.77;;;;;;;15.69;100.00;101067.22;2094350;28;20461;-61
2022/09/30 03:30:50;;;;;;;14.90;8.33;;;;;;;15.68;100.00;101070.44;2088916;28;20465;-61
2022/09/30 03:32:18;;;;;;;12.77;7.43;;;;;;;15.22;100.00;101005.09;2088353;28;20538;-61
2022/09/30 03:33:30;;;;;;;10.57;7.97;;;;;;;15.68;100.00;101070.44;2088629;28;20450;-61
2022/09/30 03:34:54;;;;;;;15.73;8.83;;;;;;;15.66;100.00;101064.53;2088386;28;20534;-61
2022/09/30 03:36:00;;;;;;;12.63;9.60;;;;;;;15.42;100.00;101036.28;2088443;28;20453;-61
2022/09/30 03:37:19;;;;;;;13.17;8.27;;;;;;;15.70;100.00;101068.75;2096798;28;20545;-61
2022/09/30 03:38:47;;;;;;;13.53;8.20;;;;;;;15.68;100.00;101062.81;2088445;28;20494;-61
2022/09/30 03:40:09;;;;;;;11.83;8.70;;;;;;;15.53;100.00;101061.81;2088217;28;20918;-61
2022/09/30 03:41:41;;;;;;;13.57;8.77;;;;;;;15.54;100.00;101071.75;2093961;28;20444;-61
2022/09/30 03:42:51;;;;;;;13.97;9.40;;;;;;;15.54;100.00;101074.56;2093187;28;20491;-61
2022/09/30 03:44:03;;;;;;;12.17;9.13;;;;;;;15.53;100.00;101077.78;2088179;28;20465;-61
2022/09/30 03:45:13;;;;;;;14.00;9.30;;;;;;;15.50;100.00;101073.91;2089191;28;20417;-61
2022/09/30 03:46:25;;;;;;;12.30;9.20;;;;;;;15.52;100.00;101070.66;2089310;28;20415;-61
2022/09/30 03:47:30;;;;;;;13.30;9.50;;;;;;;14.79;100.00;100968.00;2087792;28;20421;-61
2022/09/30 03:48:32;;;;;;;11.03;9.53;;;;;;;15.09;100.00;101006.38;2088818;28;20437;-61
2022/09/30 03:49:47;;;;;;;12.73;9.07;;;;;;;15.30;100.00;101044.69;2089132;28;20500;-61
2022/09/30 03:50:48;;;;;;;9.80;8.80;;;;;;;15.53;100.00;101078.56;2089293;28;20944;-61
2022/09/30 03:51:49;;;;;;;11.10;9.27;;;;;;;15.57;100.00;101093.19;2088173;28;20469;-61
2022/09/30 03:52:50;;;;;;;11.43;9.93;;;;;;;15.55;100.00;101078.91;2095471;28;20183;-61
2022/09/30 03:53:52;;;;;;;14.83;11.13;;;;;;;15.59;100.00;101082.34;2096016;28;20278;-61
2022/09/30 03:54:57;;;;;;;10.83;8.90;;;;;;;15.62;100.00;101089.03;2096292;28;20439;-61
2022/09/30 03:55:57;;;;;;;9.60;8.60;;;;;;;15.58;100.00;101080.78;2096037;28;20451;-61
2022/09/30 03:57:02;;;;;;;12.43;10.43;;;;;;;15.62;100.00;101091.84;2096067;28;20464;-61
2022/09/30 03:58:02;;;;;;;15.57;10.47;;;;;;;15.62;100.00;101086.25;2093719;28;20172;-61
2022/09/30 03:59:03;;;;;;;12.63;9.80;;;;;;;14.90;100.00;100977.56;2090071;28;20421;-61
2022/09/30 04:00:05;;;;;;;17.90;9.27;;;;;;;15.62;100.00;101097.41;2096352;28;20176;-61
2022/09/30 04:01:06;;;;;;;18.37;11.37;;;;;;;15.63;100.00;101094.16;2089085;28;20259;-61
2022/09/30 04:02:09;;;;;;;18.57;12.80;;;;;;;15.64;100.00;101092.16;2093071;28;20441;-61
2022/09/30 04:03:09;;;;;;;18.10;13.70;;;;;;;15.68;100.00;101090.78;2094597;28;20191;-61
2022/09/30 04:04:12;;;;;;;18.50;13.60;;;;;;;15.68;100.00;101090.78;2094163;28;20430;-61
2022/09/30 04:05:12;;;;;;;22.83;11.10;;;;;;;15.70;100.00;101091.13;2094537;28;20184;-61
2022/09/30 04:06:13;;;;;;;19.77;10.70;;;;;;;15.69;100.00;101086.75;2093839;28;20425;-61
2022/09/30 04:07:14;;;;;;;17.10;10.67;;;;;;;15.65;100.00;101088.91;2093998;28;20538;-61
2022/09/30 04:08:15;;;;;;;14.70;11.17;;;;;;;15.68;100.00;101087.22;2095990;28;21088;-61
2022/09/30 04:09:16;;;;;;;19.30;10.57;;;;;;;15.70;100.00;101088.31;2094637;28;20201;-61
2022/09/30 04:10:16;;;;;;;17.33;10.00;;;;;;;15.70;100.00;101088.31;2094574;28;20448;-61
2022/09/30 04:11:17;;;;;;;17.27;11.77;;;;;;;15.70;100.00;101090.31;2093366;28;20200;-61
2022/09/30 04:12:17;;;;;;;19.33;11.27;;;;;;;15.71;100.00;101092.66;2091674;28;20180;-61
2022/09/30 04:13:18;;;;;;;16.90;12.57;;;;;;;15.71;100.00;101095.47;2091463;28;20217;-61
2022/09/30 04:14:18;;;;;;;22.63;12.17;;;;;;;15.73;100.00;101095.00;2093848;28;20199;-61
2022/09/30 04:15:19;;;;;;;14.33;10.53;;;;;;;15.75;100.00;101092.53;2087302;28;20729;-63
2022/09/30 04:16:19;;;;;;;18.53;10.90;;;;;;;15.75;100.00;101087.72;2091849;28;20183;-64
2022/09/30 04:17:20;;;;;;;20.90;11.10;;;;;;;15.78;100.00;101097.22;2092485;28;20215;-61
2022/09/30 04:18:20;;;;;;;16.20;12.63;;;;;;;15.78;100.00;101089.59;2094049;28;20262;-61
2022/09/30 04:19:20;;;;;;;19.43;11.97;;;;;;;15.79;100.00;101091.16;2094734;28;20614;-61
2022/09/30 04:20:21;;;;;;;19.47;11.23;;;;;;;15.43;100.00;101026.66;2096690;28;20241;-62
2022/09/30 04:21:22;;;;;;;26.23;11.77;;;;;;;15.77;100.00;101090.06;2091734;28;20834;-61
2022/09/30 04:22:22;;;;;;;18.57;11.03;;;;;;;15.77;100.00;101084.47;2091290;28;20570;-61
2022/09/30 04:23:23;;;;;;;19.60;12.40;;;;;;;15.79;100.00;101084.78;2086735;28;20494;-61
2022/09/30 04:24:24;;;;;;;24.97;11.60;;;;;;;15.79;100.00;101084.78;2093285;28;20989;-61
2022/09/30 04:25:26;;;;;;;22.87;10.70;;;;;;;15.80;100.00;101089.94;2091578;28;20830;-62
2022/09/30 04:26:26;;;;;;;20.10;10.37;;;;;;;15.78;100.00;101092.38;2094739;28;20236;-62
2022/09/30 04:27:29;;;;;;;24.20;9.90;;;;;;;15.67;100.00;101069.66;2085750;28;20438;-61
2022/09/30 04:28:29;;;;;;;22.30;10.47;;;;;;;15.68;100.00;101076.03;2090692;28;20203;-61
2022/09/30 04:29:30;;;;;;;20.30;10.50;;;;;;;15.84;100.00;101100.97;2092813;28;20445;-62
2022/09/30 04:30:30;;;;;;;18.97;10.77;;;;;;;15.76;100.00;101094.88;2090514;28;20282;-62
2022/09/30 04:31:30;;;;;;;14.97;10.83;;;;;;;15.40;100.00;101057.53;2092661;28;20221;-62
2022/09/30 04:32:31;;;;;;;19.53;11.97;;;;;;;15.71;100.00;101105.84;2096044;28;20182;-61
2022/09/30 04:33:32;;;;;;;22.30;11.40;;;;;;;15.77;100.00;101121.56;2092972;28;20207;-61
2022/09/30 04:34:32;;;;;;;17.13;10.33;;;;;;;15.80;100.00;101120.69;2091561;28;20188;-62
2022/09/30 04:35:36;;;;;;;17.47;11.37;;;;;;;15.72;100.00;101104.63;2092630;28;21645;-62
2022/09/30 04:36:37;;;;;;;17.17;10.13;;;;;;;15.82;100.00;101123.00;2091670;28;20179;-62
2022/09/30 04:37:56;;;;;;;16.70;10.07;;;;;;;15.81;100.00;101113.84;2092242;28;20898;-62
2022/09/30 04:38:57;;;;;;;16.37;9.10;;;;;;;15.81;100.00;101111.03;2086886;28;21002;-62
2022/09/30 04:39:58;;;;;;;16.23;11.03;;;;;;;15.82;100.00;101107.00;2093347;28;20902;-62
2022/09/30 04:41:03;;;;;;;20.50;15.00;;;;;;;15.81;100.00;101108.25;2094769;28;20229;-62
2022/09/30 04:42:03;;;;;;;20.27;15.33;;;;;;;15.81;100.00;101101.88;2092443;28;20440;-62
2022/09/30 04:43:05;;;;;;;23.37;16.80;;;;;;;15.65;100.00;101080.53;2092891;28;20438;-62
2022/09/30 04:44:06;;;;;;;25.20;16.67;;;;;;;15.81;100.00;101107.47;2092570;28;20251;-62
2022/09/30 04:45:07;;;;;;;21.07;16.67;;;;;;;15.78;100.00;101106.34;2088348;28;21087;-62
2022/09/30 04:46:07;;;;;;;17.07;13.40;;;;;;;15.79;100.00;101107.91;2090817;28;20807;-62
2022/09/30 04:47:08;;;;;;;18.07;13.87;;;;;;;15.80;100.00;101117.09;2089280;28;20433;-62
2022/09/30 04:48:08;;;;;;;22.67;15.50;;;;;;;15.80;100.00;101120.69;2092789;28;20334;-62
2022/09/30 04:49:09;;;;;;;26.53;23.73;;;;;;;15.74;100.00;101113.31;2092412;28;20697;-62
2022/09/30 04:50:09;;;;;;;22.27;20.07;;;;;;;15.43;100.00;101076.94;2091837;28;20192;-62
2022/09/30 04:51:20;;;;;;;18.70;15.50;;;;;;;15.72;100.00;101113.00;2091224;28;20176;-62
2022/09/30 04:52:21;;;;;;;16.73;11.60;;;;;;;15.77;100.00;101126.41;2089069;28;20176;-62
2022/09/30 04:53:21;;;;;;;17.23;12.17;;;;;;;15.73;100.00;101117.38;2092345;28;20504;-62
2022/09/30 04:54:22;;;;;;;22.67;12.37;;;;;;;15.78;100.00;101128.72;2088351;28;20195;-61
2022/09/30 04:55:22;;;;;;;13.80;11.80;;;;;;;15.78;100.00;101123.13;2088894;28;20183;-62
2022/09/30 04:56:25;;;;;;;14.63;11.83;;;;;;;15.77;100.00;101132.75;2086797;28;20214;-63
2022/09/30 04:57:26;;;;;;;19.50;10.93;;;;;;;15.78;100.00;101139.91;2093858;28;20215;-62
2022/09/30 04:58:28;;;;;;;19.67;12.17;;;;;;;15.80;100.00;101147.81;2089514;28;20429;-62
2022/09/30 04:59:28;;;;;;;23.77;16.57;;;;;;;15.79;100.00;101143.47;2091487;28;20500;-63
2022/09/30 05:00:29;;;;;;;29.37;17.67;;;;;;;15.79;100.00;101147.03;2091363;28;20448;-62
2022/09/30 05:01:29;;;;;;;20.87;15.90;;;;;;;14.97;100.00;101013.56;2089799;28;20184;-62
2022/09/30 05:02:44;;;;;;;18.13;14.13;;;;;;;15.65;100.00;101136.41;2094488;28;21819;-62
2022/09/30 05:03:46;;;;;;;22.77;16.00;;;;;;;15.64;100.00;101139.66;2093233;28;20191;-61
2022/09/30 05:04:46;;;;;;;21.80;14.97;;;;;;;15.65;100.00;101144.00;2090660;28;20437;-61
2022/09/30 05:05:48;;;;;;;19.83;14.27;;;;;;;15.66;100.00;101149.13;2090906;28;20426;-61